Time;durP1;ratioP1;P1;durP2;ratioP2;P2;SDS_P1;SDS_P2;PMS_P1;PMS_P2;Temp;Humidity;BMP_temperature;BMP_pressure;BME280_temperature;BME280_humidity;BME280_pressure;Samples;Min_cycle;Max_cycle;Signal;HPM_P1;HPM_P2
2023/12/02 00:00:23;;;;;;;;;35.50;23.00;;;;;0.53;77.80;101096.75;5040061;28;11647;-71
2023/12/02 00:02:52;;;;;;;;;31.75;26.50;;;;;0.55;78.19;101093.97;5027057;28;12325;-71
2023/12/02 00:05:18;;;;;;;;;29.25;24.25;;;;;0.53;77.77;101096.75;5025008;28;11604;-70
2023/12/02 00:07:45;;;;;;;;;32.25;28.50;;;;;0.52;78.10;101096.88;5027190;28;11721;-69
2023/12/02 00:10:12;;;;;;;;;31.00;25.25;;;;;0.51;77.88;101090.72;5029600;28;11599;-70
2023/12/02 00:12:38;;;;;;;;;30.25;23.50;;;;;0.48;78.16;101096.25;5024488;28;11645;-70
2023/12/02 00:15:06;;;;;;;;;30.25;24.25;;;;;0.51;78.09;101098.66;5027799;28;11580;-71
2023/12/02 00:17:33;;;;;;;;;25.75;25.50;;;;;0.51;77.92;101100.47;5028098;28;11546;-71
2023/12/02 00:20:00;;;;;;;;;25.25;22.00;;;;;0.49;78.24;101087.38;5044907;28;11569;-69
2023/12/02 00:22:27;;;;;;;;;30.00;27.25;;;;;0.51;78.04;101089.91;5041257;28;11584;-72
2023/12/02 00:24:53;;;;;;;;;40.00;33.75;;;;;0.50;78.21;101091.69;5027672;28;12882;-70
2023/12/02 00:27:19;;;;;;;;;31.00;23.25;;;;;0.49;77.76;101088.22;5020100;28;11668;-69
2023/12/02 00:29:46;;;;;;;;;26.75;26.00;;;;;0.51;78.16;101096.03;5007790;28;11594;-69
2023/12/02 00:32:12;;;;;;;;;34.00;30.50;;;;;0.50;77.96;101086.41;5026586;28;11634;-70
2023/12/02 00:34:53;;;;;;;;;40.00;32.75;;;;;0.48;78.15;101085.66;5030260;28;11568;-71
2023/12/02 00:37:19;;;;;;;;;30.50;26.50;;;;;0.44;77.77;101082.41;5027877;28;12278;-71
2023/12/02 00:39:46;;;;;;;;;27.75;25.25;;;;;0.43;78.14;101074.63;5028921;28;11581;-69
2023/12/02 00:42:12;;;;;;;;;29.75;27.75;;;;;0.40;77.99;101074.84;5030535;28;11607;-70
2023/12/02 00:44:39;;;;;;;;;30.00;27.25;;;;;0.38;78.03;101074.97;5032412;28;11587;-70
2023/12/02 00:47:05;;;;;;;;;32.50;26.75;;;;;0.37;78.38;101083.06;5031468;28;11565;-70
2023/12/02 00:49:32;;;;;;;;;30.75;21.25;;;;;0.39;78.76;101084.59;5045159;28;11638;-71
2023/12/02 00:51:58;;;;;;;;;30.25;26.50;;;;;0.38;78.08;101074.16;5051912;28;11653;-70
2023/12/02 00:54:25;;;;;;;;;32.00;27.00;;;;;0.36;78.17;101084.00;5032288;28;11568;-70
2023/12/02 00:56:51;;;;;;;;;22.50;19.00;;;;;0.32;77.88;101079.91;5031521;28;11528;-71
2023/12/02 00:59:18;;;;;;;;;39.25;28.50;;;;;0.30;78.61;101076.56;5025539;28;11516;-69
2023/12/02 01:01:45;;;;;;;;;24.25;23.25;;;;;0.30;78.66;101073.91;5052297;28;11594;-70
2023/12/02 01:04:11;;;;;;;;;27.75;23.50;;;;;0.29;78.71;101070.44;5052514;28;11576;-70
2023/12/02 01:06:38;;;;;;;;;31.50;29.75;;;;;0.23;78.32;101078.84;5052127;28;11582;-71
2023/12/02 01:09:05;;;;;;;;;41.75;31.75;;;;;0.21;78.21;101078.13;5045946;28;11598;-68
2023/12/02 01:11:32;;;;;;;;;37.25;29.75;;;;;0.18;78.45;101086.31;5050474;28;12207;-71
2023/12/02 01:13:58;;;;;;;;;31.75;28.50;;;;;0.17;78.41;101084.66;5031732;28;11590;-70
2023/12/02 01:16:25;;;;;;;;;33.25;25.00;;;;;0.18;78.51;101084.50;5050978;28;11537;-69
2023/12/02 01:18:51;;;;;;;;;28.25;23.00;;;;;0.19;78.67;101086.19;5052585;28;11534;-70
2023/12/02 01:21:18;;;;;;;;;32.25;29.75;;;;;0.21;78.42;101091.38;5051612;28;12318;-70
2023/12/02 01:23:44;;;;;;;;;35.75;28.25;;;;;0.21;78.56;101094.88;5034215;28;11555;-70
2023/12/02 01:26:11;;;;;;;;;29.75;28.75;;;;;0.18;78.62;101091.63;5016251;28;11625;-69
2023/12/02 01:28:38;;;;;;;;;32.75;27.25;;;;;0.18;78.36;101095.09;5033083;28;11521;-70
2023/12/02 01:31:04;;;;;;;;;29.25;25.00;;;;;0.18;78.37;101094.25;5048842;28;12294;-70
2023/12/02 01:33:31;;;;;;;;;32.75;28.25;;;;;0.16;78.86;101090.88;5051734;28;11500;-70
2023/12/02 01:35:57;;;;;;;;;34.00;27.25;;;;;0.14;78.62;101087.53;5051588;28;13934;-69
2023/12/02 01:38:24;;;;;;;;;34.75;29.75;;;;;0.14;78.83;101090.16;5033873;28;12310;-71
2023/12/02 01:40:50;;;;;;;;;33.50;27.00;;;;;0.13;78.79;101096.44;5050012;28;11556;-70
2023/12/02 01:43:25;;;;;;;;;22.50;22.50;;;;;0.11;78.64;101096.53;5049413;28;11551;-70
2023/12/02 01:45:53;;;;;;;;;35.75;30.00;;;;;0.12;78.65;101092.94;5033921;28;11509;-70
2023/12/02 01:48:21;;;;;;;;;31.25;27.50;;;;;0.10;78.73;101086.91;5049678;28;11561;-71
2023/12/02 01:50:48;;;;;;;;;34.25;27.00;;;;;0.08;78.55;101091.50;5049565;28;11590;-71
2023/12/02 01:53:16;;;;;;;;;39.50;30.25;;;;;0.06;78.51;101087.28;5050178;28;11603;-70
2023/12/02 01:55:43;;;;;;;;;33.00;29.00;;;;;0.04;78.97;101091.84;5031523;28;11577;-70
2023/12/02 01:58:10;;;;;;;;;29.75;26.00;;;;;0.05;78.71;101090.91;5030964;28;11595;-70
2023/12/02 02:00:37;;;;;;;;;41.50;30.00;;;;;0.05;78.66;101097.03;5031200;28;11570;-72
2023/12/02 02:03:03;;;;;;;;;31.50;27.00;;;;;0.06;78.94;101092.56;5049985;28;11524;-70
2023/12/02 02:05:31;;;;;;;;;35.25;29.00;;;;;0.05;78.53;101089.09;5051010;28;11566;-69
2023/12/02 02:07:57;;;;;;;;;36.25;30.75;;;;;0.05;78.83;101089.09;5050277;28;12260;-71
2023/12/02 02:10:24;;;;;;;;;28.00;24.50;;;;;0.08;78.51;101091.50;5051140;28;11547;-70
2023/12/02 02:12:50;;;;;;;;;28.00;24.50;;;;;0.05;78.86;101086.44;5051057;28;11511;-69
2023/12/02 02:15:17;;;;;;;;;29.50;28.00;;;;;0.04;78.78;101091.84;5030662;28;11521;-70
2023/12/02 02:17:44;;;;;;;;;29.25;28.00;;;;;0.03;78.67;101096.28;5046935;28;11583;-70
2023/12/02 02:20:11;;;;;;;;;30.50;25.75;;;;;0.02;78.95;101097.25;5041867;28;11549;-70
2023/12/02 02:22:37;;;;;;;;;32.75;28.00;;;;;0.02;78.32;101091.97;5050104;28;11529;-71
2023/12/02 02:25:04;;;;;;;;;26.00;19.25;;;;;0.01;78.75;101092.94;5045829;28;11543;-71
2023/12/02 02:27:31;;;;;;;;;38.00;24.00;;;;;-0.01;78.44;101089.56;5045391;28;11532;-70
2023/12/02 02:29:58;;;;;;;;;24.50;21.00;;;;;-0.04;78.36;101088.00;5049338;28;11577;-68
2023/12/02 02:32:25;;;;;;;;;33.50;25.50;;;;;-0.04;78.50;101089.78;5028750;28;11525;-71
2023/12/02 02:34:52;;;;;;;;;24.50;23.75;;;;;-0.04;78.84;101088.00;5051357;28;11532;-72
2023/12/02 02:37:19;;;;;;;;;21.50;21.00;;;;;-0.06;78.45;101095.22;5046534;28;11590;-72
2023/12/02 02:39:45;;;;;;;;;34.75;30.00;;;;;-0.05;78.43;101093.41;5048385;28;11559;-69
2023/12/02 02:42:12;;;;;;;;;29.00;23.50;;;;;-0.06;78.33;101095.22;5046521;28;11632;-72
2023/12/02 02:44:38;;;;;;;;;26.50;24.50;;;;;-0.06;78.52;101083.78;5050795;28;11523;-72
2023/12/02 02:47:05;;;;;;;;;38.00;27.75;;;;;-0.09;78.18;101095.44;5043849;28;11590;-71
2023/12/02 02:49:31;;;;;;;;;29.50;24.25;;;;;-0.11;78.60;101084.16;5049471;28;11535;-70
2023/12/02 02:51:58;;;;;;;;;37.50;28.00;;;;;-0.12;78.54;101090.41;5049200;28;11685;-71
2023/12/02 02:54:24;;;;;;;;;23.50;21.75;;;;;-0.13;78.25;101087.88;5050299;28;11521;-71
2023/12/02 02:56:51;;;;;;;;;27.50;23.00;;;;;-0.14;78.55;101086.19;5045434;28;11504;-72
2023/12/02 02:59:18;;;;;;;;;33.00;24.50;;;;;-0.16;78.71;101091.63;5048372;28;12293;-68
2023/12/02 03:01:47;;;;;;;;;28.50;23.50;;;;;-0.15;78.41;101097.75;5042034;28;11673;-71
2023/12/02 03:04:13;;;;;;;;;28.50;20.00;;;;;-0.18;78.79;101090.88;5051354;28;11503;-72
2023/12/02 03:06:40;;;;;;;;;29.50;27.00;;;;;-0.20;78.30;101087.53;5050673;28;11517;-70
2023/12/02 03:09:07;;;;;;;;;37.50;28.00;;;;;-0.20;78.76;101097.22;5049405;28;11617;-71
2023/12/02 03:11:33;;;;;;;;;30.50;28.75;;;;;-0.23;78.10;101097.50;5030043;28;11608;-71
2023/12/02 03:14:00;;;;;;;;;33.25;30.25;;;;;-0.25;78.67;101097.59;5048706;28;11586;-70
2023/12/02 03:16:26;;;;;;;;;32.75;30.00;;;;;-0.25;78.65;101101.06;5049662;28;11519;-69
2023/12/02 03:18:53;;;;;;;;;27.00;24.75;;;;;-0.26;78.77;101087.97;5031154;28;11531;-71
2023/12/02 03:21:19;;;;;;;;;36.25;29.50;;;;;-0.27;78.63;101087.13;5050657;28;11501;-71
2023/12/02 03:23:49;;;;;;;;;35.25;30.50;;;;;-0.29;78.56;101075.81;5046713;28;14313;-67
2023/12/02 03:26:17;;;;;;;;;37.75;29.50;;;;;-0.31;78.54;101083.03;5046289;28;11574;-69
2023/12/02 03:28:43;;;;;;;;;33.50;30.50;;;;;-0.32;78.42;101083.19;5046987;28;11613;-71
2023/12/02 03:31:10;;;;;;;;;25.50;24.25;;;;;-0.31;78.74;101087.50;5031928;28;11538;-72
2023/12/02 03:33:36;;;;;;;;;9.75;8.25;;;;;-0.31;78.95;101085.69;5044944;28;11536;-71
2023/12/02 03:36:03;;;;;;;;;28.50;22.00;;;;;-0.31;79.19;101092.78;5049568;28;12242;-71
2023/12/02 03:38:30;;;;;;;;;27.25;23.50;;;;;-0.34;78.97;101093.00;5050495;28;11627;-71
2023/12/02 03:40:56;;;;;;;;;24.50;20.75;;;;;-0.36;79.20;101090.50;5046792;28;11585;-71
2023/12/02 03:43:23;;;;;;;;;30.00;29.00;;;;;-0.38;79.07;101088.91;5047733;28;11654;-70
2023/12/02 03:45:50;;;;;;;;;23.00;19.75;;;;;-0.39;79.20;101087.25;5047474;28;11610;-71
2023/12/02 03:48:17;;;;;;;;;33.25;30.25;;;;;-0.42;79.84;101090.94;5048977;28;11586;-71
2023/12/02 03:50:43;;;;;;;;;27.75;25.25;;;;;-0.42;79.32;101092.75;5050009;28;11534;-71
2023/12/02 03:53:10;;;;;;;;;28.50;28.00;;;;;-0.44;79.23;101084.97;5048973;28;11538;-71
2023/12/02 03:55:36;;;;;;;;;26.00;24.50;;;;;-0.45;79.37;101101.75;5049078;28;11557;-70
2023/12/02 03:58:03;;;;;;;;;33.75;30.75;;;;;-0.44;79.32;101099.97;5028960;28;11677;-71
2023/12/02 04:00:29;;;;;;;;;25.00;23.25;;;;;-0.46;79.07;101101.88;5048861;28;11532;-70
2023/12/02 04:02:59;;;;;;;;;36.00;32.00;;;;;-0.47;79.39;101094.91;5049410;28;11547;-71
2023/12/02 04:05:25;;;;;;;;;41.25;33.50;;;;;-0.52;79.48;101093.47;5048772;28;11576;-69
2023/12/02 04:07:52;;;;;;;;;26.25;23.50;;;;;-0.51;79.10;101102.25;5031344;28;11613;-71
2023/12/02 04:10:18;;;;;;;;;31.75;27.50;;;;;-0.50;78.93;101106.56;5030842;28;11521;-69
2023/12/02 04:12:46;;;;;;;;;32.75;31.25;;;;;-0.51;79.45;101105.72;5047547;28;11557;-71
2023/12/02 04:15:13;;;;;;;;;35.50;28.25;;;;;-0.54;79.15;101111.22;5053945;28;11524;-71
2023/12/02 04:17:39;;;;;;;;;30.75;29.75;;;;;-0.55;79.63;101114.84;5051741;28;11670;-71
2023/12/02 04:20:11;;;;;;;;;32.25;24.75;;;;;-0.54;79.39;101124.47;5052406;28;12308;-70
2023/12/02 04:22:38;;;;;;;;;28.00;23.50;;;;;-0.53;79.54;101131.44;5053065;28;11616;-71
2023/12/02 04:25:06;;;;;;;;;33.75;28.75;;;;;-0.55;79.30;101137.81;5054001;28;11526;-71
2023/12/02 04:27:32;;;;;;;;;30.00;25.75;;;;;-0.58;79.19;101130.94;5034801;28;11514;-70
2023/12/02 04:29:59;;;;;;;;;29.00;24.50;;;;;-0.56;79.79;101136.13;5051304;28;11505;-71
2023/12/02 04:32:26;;;;;;;;;33.00;28.50;;;;;-0.57;79.45;101134.41;5051804;28;11576;-72
2023/12/02 04:34:53;;;;;;;;;30.00;24.75;;;;;-0.62;79.46;101140.06;5051905;28;11531;-71
2023/12/02 04:37:23;;;;;;;;;30.75;25.50;;;;;-0.63;80.00;101141.03;5052981;28;11574;-71
2023/12/02 04:39:50;;;;;;;;;30.25;26.25;;;;;-0.61;79.63;101141.75;5052088;28;11690;-71
2023/12/02 04:42:17;;;;;;;;;33.25;28.50;;;;;-0.58;79.47;101149.44;5051936;28;12284;-70
2023/12/02 04:44:43;;;;;;;;;27.00;21.00;;;;;-0.56;79.90;101147.53;5051493;28;11533;-70
2023/12/02 04:47:10;;;;;;;;;25.50;25.50;;;;;-0.54;79.73;101142.13;5045553;28;11555;-71
2023/12/02 04:49:36;;;;;;;;;35.00;30.00;;;;;-0.57;79.31;101137.94;5050194;28;12247;-71
2023/12/02 04:52:03;;;;;;;;;27.25;26.00;;;;;-0.60;79.84;101135.50;5052616;28;11555;-69
2023/12/02 04:54:30;;;;;;;;;29.25;22.00;;;;;-0.59;79.92;101134.53;5031440;28;11577;-71
2023/12/02 04:56:56;;;;;;;;;34.50;29.50;;;;;-0.58;79.53;101144.16;5051809;28;12220;-71
2023/12/02 04:59:23;;;;;;;;;36.00;29.00;;;;;-0.60;79.56;101146.09;5052346;28;11656;-70
2023/12/02 05:01:49;;;;;;;;;37.67;26.67;;;;;-0.61;79.38;101148.81;5048821;28;12256;-71
2023/12/02 05:04:16;;;;;;;;;31.25;27.25;;;;;-0.62;79.62;101145.34;5045900;28;11559;-70
2023/12/02 05:06:42;;;;;;;;;39.00;32.50;;;;;-0.66;79.64;101151.81;5051891;28;12439;-71
2023/12/02 05:09:09;;;;;;;;;36.25;33.75;;;;;-0.70;79.39;101152.16;5051245;28;11537;-71
2023/12/02 05:11:36;;;;;;;;;30.50;30.00;;;;;-0.70;79.80;101155.66;5033686;28;11694;-71
2023/12/02 05:14:02;;;;;;;;;35.50;29.75;;;;;-0.71;79.46;101156.59;5052139;28;11521;-71
2023/12/02 05:16:29;;;;;;;;;39.00;28.25;;;;;-0.69;79.65;101165.25;5052986;28;11652;-71
2023/12/02 05:18:55;;;;;;;;;26.75;22.75;;;;;-0.68;79.63;101161.69;5030724;28;11544;-69
2023/12/02 05:21:22;;;;;;;;;30.00;27.00;;;;;-0.70;79.32;101158.28;5031051;28;11552;-69
2023/12/02 05:23:49;;;;;;;;;31.75;27.00;;;;;-0.73;79.29;101153.22;5052258;28;11539;-71
2023/12/02 05:26:16;;;;;;;;;27.75;23.00;;;;;-0.73;79.56;101163.78;5051412;28;11508;-67
2023/12/02 05:28:42;;;;;;;;;41.25;30.00;;;;;-0.72;79.76;101160.22;5044465;28;11505;-71
2023/12/02 05:31:09;;;;;;;;;38.75;26.50;;;;;-0.75;79.25;101158.63;5045305;28;11573;-71
2023/12/02 05:33:36;;;;;;;;;32.50;25.50;;;;;-0.72;79.36;101164.66;5051082;28;11599;-72
2023/12/02 05:36:02;;;;;;;;;39.25;30.75;;;;;-0.69;79.77;101169.69;5057165;28;11551;-70
2023/12/02 05:38:29;;;;;;;;;33.50;28.75;;;;;-0.70;79.17;101168.84;5045355;28;11669;-71
2023/12/02 05:40:55;;;;;;;;;37.75;27.50;;;;;-0.73;79.62;101166.44;5033718;28;11583;-72
2023/12/02 05:43:22;;;;;;;;;40.50;30.00;;;;;-0.79;78.96;101170.38;5051552;28;11562;-71
2023/12/02 05:45:48;;;;;;;;;32.00;29.50;;;;;-0.78;79.28;101169.41;5045048;28;12345;-71
2023/12/02 05:48:16;;;;;;;;;34.25;30.00;;;;;-0.82;78.83;101175.06;5044598;28;11547;-71
2023/12/02 05:50:42;;;;;;;;;36.25;32.50;;;;;-0.85;79.47;101186.72;5052224;28;11521;-71
2023/12/02 05:53:09;;;;;;;;;31.25;24.50;;;;;-0.85;79.63;101175.28;5033904;28;11519;-71
2023/12/02 05:55:36;;;;;;;;;29.75;27.75;;;;;-0.82;79.78;101180.34;5050275;28;11564;-71
2023/12/02 05:58:03;;;;;;;;;38.00;30.75;;;;;-0.82;79.64;101188.25;5050198;28;11545;-71
2023/12/02 06:00:29;;;;;;;;;36.50;28.00;;;;;-0.81;79.70;101193.47;5048678;28;11551;-71
2023/12/02 06:02:56;;;;;;;;;33.25;28.25;;;;;-0.80;79.64;101196.94;5051052;28;12313;-72
2023/12/02 06:05:22;;;;;;;;;39.00;30.00;;;;;-0.82;79.95;101191.75;5023314;28;11660;-72
2023/12/02 06:07:49;;;;;;;;;27.00;25.50;;;;;-0.85;79.53;101185.84;5050414;28;11530;-70
2023/12/02 06:10:15;;;;;;;;;33.00;25.50;;;;;-0.85;79.53;101188.47;5048584;28;11651;-71
2023/12/02 06:12:42;;;;;;;;;31.50;25.50;;;;;-0.84;79.90;101187.56;5032782;28;11564;-71
2023/12/02 06:15:10;;;;;;;;;28.25;25.75;;;;;-0.86;79.61;101185.00;5050208;28;11611;-71
2023/12/02 06:17:38;;;;;;;;;30.50;27.75;;;;;-0.86;79.80;101184.16;5045151;28;11543;-71
2023/12/02 06:20:06;;;;;;;;;43.75;34.75;;;;;-0.88;79.55;101191.38;5051015;28;11653;-69
2023/12/02 06:22:33;;;;;;;;;38.25;24.25;;;;;-0.87;80.11;101196.53;5051658;28;11543;-70
2023/12/02 06:25:00;;;;;;;;;27.50;23.00;;;;;-0.86;80.04;101200.84;5050499;28;11518;-71
2023/12/02 06:27:26;;;;;;;;;41.00;30.00;;;;;-0.85;80.02;101201.69;5030357;28;12289;-70
2023/12/02 06:29:53;;;;;;;;;36.50;28.00;;;;;-0.85;79.60;101202.56;5042853;28;11537;-70
2023/12/02 06:32:19;;;;;;;;;35.50;27.75;;;;;-0.89;79.51;101200.22;5060238;28;11540;-71
2023/12/02 06:34:46;;;;;;;;;38.00;33.75;;;;;-0.89;79.59;101210.81;5059276;28;11596;-70
2023/12/02 06:37:13;;;;;;;;;32.75;26.25;;;;;-0.89;79.53;101219.59;5049011;28;11628;-70
2023/12/02 06:39:40;;;;;;;;;33.50;29.75;;;;;-0.90;79.93;101220.53;5049240;28;11506;-71
2023/12/02 06:42:06;;;;;;;;;37.75;34.50;;;;;-0.91;80.00;101220.66;5049386;28;11538;-70
2023/12/02 06:44:33;;;;;;;;;35.25;31.50;;;;;-0.93;79.63;101223.41;5049672;28;11555;-70
2023/12/02 06:46:59;;;;;;;;;32.00;27.25;;;;;-0.93;79.91;101227.84;5046700;28;11522;-70
2023/12/02 06:49:26;;;;;;;;;27.75;27.50;;;;;-0.96;79.58;101231.56;5029390;28;11570;-70
2023/12/02 06:51:53;;;;;;;;;44.00;29.00;;;;;-0.95;80.15;101227.97;5051026;28;11592;-70
2023/12/02 06:54:19;;;;;;;;;30.25;29.00;;;;;-0.96;79.60;101228.91;5031997;28;11531;-70
2023/12/02 06:56:45;;;;;;;;;37.50;34.00;;;;;-0.98;79.90;101238.75;5050746;28;11513;-70
2023/12/02 06:59:12;;;;;;;;;36.00;27.00;;;;;-0.99;79.55;101237.06;5048984;28;11561;-69
2023/12/02 07:01:40;;;;;;;;;35.00;29.75;;;;;-1.01;79.82;101245.09;5049356;28;11603;-70
2023/12/02 07:04:06;;;;;;;;;32.50;26.50;;;;;-1.02;80.00;101246.03;5048350;28;11568;-68
2023/12/02 07:06:33;;;;;;;;;36.25;32.00;;;;;-1.02;80.17;101248.69;5049251;28;11693;-71
2023/12/02 07:09:00;;;;;;;;;42.00;34.00;;;;;-0.98;80.26;101259.03;5049154;28;11542;-70
2023/12/02 07:11:26;;;;;;;;;47.50;35.50;;;;;-0.96;79.80;101259.78;5031552;28;11528;-71
2023/12/02 07:13:53;;;;;;;;;36.50;32.75;;;;;-0.97;79.63;101264.22;5035043;28;11618;-70
2023/12/02 07:16:19;;;;;;;;;37.50;30.00;;;;;-0.95;79.57;101272.88;5054661;28;11514;-70
2023/12/02 07:18:46;;;;;;;;;37.00;30.50;;;;;-0.96;79.83;101273.84;5054330;28;11539;-71
2023/12/02 07:21:13;;;;;;;;;36.00;30.75;;;;;-0.95;79.71;101279.97;5047019;28;11515;-70
2023/12/02 07:23:39;;;;;;;;;33.50;30.00;;;;;-0.97;79.88;101279.22;5047465;28;11562;-70
2023/12/02 07:26:07;;;;;;;;;35.50;34.00;;;;;-0.97;79.69;101280.09;5032531;28;11573;-70
2023/12/02 07:28:33;;;;;;;;;35.50;31.75;;;;;-0.96;79.67;101278.28;5031751;28;11533;-70
2023/12/02 07:30:59;;;;;;;;;30.50;26.75;;;;;-0.95;79.89;101286.09;5048929;28;12299;-71
2023/12/02 07:33:26;;;;;;;;;30.50;27.50;;;;;-0.96;79.66;101284.41;5031386;28;11602;-70
2023/12/02 07:35:53;;;;;;;;;40.25;32.50;;;;;-0.97;79.35;101288.00;5042040;28;11539;-70
2023/12/02 07:38:19;;;;;;;;;36.25;29.50;;;;;-0.96;79.91;101294.13;5030954;28;11635;-71
2023/12/02 07:40:45;;;;;;;;;34.00;30.00;;;;;-0.94;79.80;101287.78;5047901;28;12398;-70
2023/12/02 07:43:12;;;;;;;;;35.25;33.25;;;;;-0.91;79.53;101302.56;5030863;28;12316;-70
2023/12/02 07:45:39;;;;;;;;;36.75;36.75;;;;;-0.90;79.85;101301.63;5031141;28;11526;-71
2023/12/02 07:48:05;;;;;;;;;33.50;27.50;;;;;-0.87;79.50;101298.75;5048418;28;11530;-69
2023/12/02 07:50:32;;;;;;;;;38.25;30.00;;;;;-0.88;79.86;101292.63;5047795;28;11528;-70
2023/12/02 07:52:58;;;;;;;;;35.00;31.25;;;;;-0.88;79.84;101297.91;5048896;28;11552;-70
2023/12/02 07:55:25;;;;;;;;;35.50;29.75;;;;;-0.86;79.66;101297.78;5051997;28;11535;-71
2023/12/02 07:57:53;;;;;;;;;41.75;30.75;;;;;-0.86;79.79;101305.72;5045269;28;11546;-69
2023/12/02 08:00:19;;;;;;;;;37.50;34.75;;;;;-0.83;80.22;101303.72;5053099;28;11546;-69
2023/12/02 08:02:46;;;;;;;;;38.00;31.00;;;;;-0.80;80.20;101311.44;5040307;28;11570;-68
2023/12/02 08:05:13;;;;;;;;;47.75;41.00;;;;;-0.76;79.53;101317.34;5030433;28;11529;-70
2023/12/02 08:07:42;;;;;;;;;42.25;33.00;;;;;-0.76;80.11;101320.00;5048154;28;11563;-67
2023/12/02 08:10:09;;;;;;;;;46.25;36.25;;;;;-0.78;79.66;101317.44;5046757;28;11530;-69
2023/12/02 08:12:36;;;;;;;;;50.00;35.25;;;;;-0.77;79.40;101320.91;5048584;28;12297;-70
2023/12/02 08:15:04;;;;;;;;;33.25;31.25;;;;;-0.73;79.96;101321.56;5029327;28;11635;-69
2023/12/02 08:17:30;;;;;;;;;30.75;29.25;;;;;-0.67;80.22;101321.97;5048651;28;11630;-69
2023/12/02 08:19:57;;;;;;;;;34.50;30.25;;;;;-0.63;79.81;101320.78;5046879;28;11542;-70
2023/12/02 08:22:24;;;;;;;;;34.25;27.50;;;;;-0.62;79.72;101314.53;5049789;28;11501;-70
2023/12/02 08:24:52;;;;;;;;;42.50;38.00;;;;;-0.65;79.57;101317.44;5025348;28;12281;-70
2023/12/02 08:27:18;;;;;;;;;31.00;24.50;;;;;-0.63;79.22;101326.09;5048733;28;11521;-70
2023/12/02 08:29:45;;;;;;;;;36.50;30.50;;;;;-0.62;79.84;101333.06;5047363;28;11629;-69
2023/12/02 08:32:12;;;;;;;;;46.00;34.00;;;;;-0.56;80.17;101343.19;5047882;28;11542;-71
2023/12/02 08:34:38;;;;;;;;;42.50;32.25;;;;;-0.53;80.00;101337.69;5030999;28;11609;-70
2023/12/02 08:37:06;;;;;;;;;33.25;30.25;;;;;-0.54;79.44;101336.00;5047091;28;12247;-70
2023/12/02 08:39:33;;;;;;;;;37.75;35.75;;;;;-0.46;79.77;101353.09;5041249;28;11579;-70
2023/12/02 08:41:59;;;;;;;;;36.00;30.75;;;;;-0.44;79.92;101345.94;5029841;28;11552;-69
2023/12/02 08:44:26;;;;;;;;;35.00;31.00;;;;;-0.42;79.46;101338.72;5046283;28;11659;-71
2023/12/02 08:46:52;;;;;;;;;37.00;30.00;;;;;-0.42;79.55;101341.34;5008391;28;11530;-71
2023/12/02 08:49:19;;;;;;;;;37.00;37.00;;;;;-0.45;79.69;101341.56;5032178;28;11525;-70
2023/12/02 08:51:46;;;;;;;;;44.00;33.25;;;;;-0.43;79.78;101343.16;5009766;28;11560;-71
2023/12/02 08:54:13;;;;;;;;;46.25;33.25;;;;;-0.42;79.42;101349.28;5048413;28;11551;-71
2023/12/02 08:56:39;;;;;;;;;32.00;27.75;;;;;-0.39;79.53;101351.72;5031745;28;11553;-70
2023/12/02 08:59:06;;;;;;;;;32.75;30.50;;;;;-0.36;79.80;101349.69;5046204;28;11557;-71
2023/12/02 09:01:33;;;;;;;;;37.25;31.50;;;;;-0.30;79.45;101354.53;5051430;28;11565;-70
2023/12/02 09:03:59;;;;;;;;;30.25;25.50;;;;;-0.27;79.62;101349.03;5051195;28;11550;-71
2023/12/02 09:06:26;;;;;;;;;37.25;31.75;;;;;-0.28;79.43;101357.09;5054289;28;11578;-70
2023/12/02 09:08:53;;;;;;;;;37.00;31.25;;;;;-0.27;79.98;101353.47;5051132;28;11691;-71
2023/12/02 09:11:20;;;;;;;;;35.50;31.50;;;;;-0.30;79.65;101349.25;5046632;28;12326;-70
2023/12/02 09:13:47;;;;;;;;;44.50;40.25;;;;;-0.30;79.56;101356.34;5057606;28;11540;-70
2023/12/02 09:16:21;;;;;;;;;46.50;35.50;;;;;-0.27;79.71;101356.13;5046785;28;12080;-71
2023/12/02 09:18:48;;;;;;;;;50.50;32.25;;;;;-0.23;79.78;101357.59;5050018;28;12290;-71
2023/12/02 09:21:21;;;;;;;;;37.25;32.00;;;;;-0.22;79.63;101358.44;5033157;28;12225;-69
2023/12/02 09:23:49;;;;;;;;;47.00;33.75;;;;;-0.19;79.70;101358.22;5046425;28;11559;-69
2023/12/02 09:26:33;;;;;;;;;42.50;33.50;;;;;-0.15;79.71;101370.25;5050693;28;11557;-70
2023/12/02 09:28:59;;;;;;;;;43.00;33.75;;;;;-0.18;79.77;101366.03;5047627;28;11575;-69
2023/12/02 09:31:27;;;;;;;;;40.75;33.25;;;;;-0.15;79.58;101371.09;5051976;28;11497;-71
2023/12/02 09:33:57;;;;;;;;;39.25;35.50;;;;;-0.17;79.79;101367.69;5047524;28;11567;-72
2023/12/02 09:36:39;;;;;;;;;33.50;27.50;;;;;-0.13;80.14;101361.22;5050170;28;11516;-71
2023/12/02 09:39:09;;;;;;;;;43.25;35.75;;;;;-0.14;79.77;101371.94;5046301;28;11523;-71
2023/12/02 09:41:59;;;;;;;;;35.75;30.00;;;;;-0.09;80.20;101377.72;5052367;28;12314;-70
2023/12/02 09:44:46;;;;;;;;;35.75;33.00;;;;;-0.03;80.20;101374.66;5046463;28;12270;-73
2023/12/02 09:47:17;;;;;;;;;39.50;35.25;;;;;-0.04;79.75;101384.41;5046691;28;11512;-72
2023/12/02 09:49:57;;;;;;;;;38.00;31.75;;;;;0.03;80.02;101384.78;5042864;28;11514;-72
2023/12/02 09:52:48;;;;;;;;;37.75;33.00;;;;;0.02;80.13;101377.81;5051352;28;11512;-72
2023/12/02 09:55:19;;;;;;;;;41.25;37.50;;;;;0.05;80.18;101388.16;5047307;28;11543;-72
2023/12/02 09:58:07;;;;;;;;;40.50;36.50;;;;;0.08;80.22;101387.06;5032652;28;11652;-70
2023/12/02 10:00:50;;;;;;;;;46.75;41.25;;;;;0.10;79.85;101393.13;5051134;28;11509;-69
2023/12/02 10:03:30;;;;;;;;;39.75;33.50;;;;;0.13;80.14;101388.44;5051801;28;11607;-70
2023/12/02 10:06:10;;;;;;;;;39.00;32.75;;;;;0.18;80.15;101390.75;5034040;28;11572;-71
2023/12/02 10:08:55;;;;;;;;;40.00;39.50;;;;;0.19;79.81;101395.06;5050231;28;11557;-71
2023/12/02 10:11:33;;;;;;;;;45.25;39.50;;;;;0.20;80.17;101388.81;5046293;28;11543;-71
2023/12/02 10:14:11;;;;;;;;;39.00;29.75;;;;;0.22;80.20;101389.56;5051285;28;11544;-69
2023/12/02 10:16:42;;;;;;;;;40.00;33.75;;;;;0.26;80.31;101383.09;5048779;28;11550;-69
2023/12/02 10:19:12;;;;;;;;;40.00;32.25;;;;;0.31;80.26;101388.88;5055926;28;11554;-71
2023/12/02 10:21:42;;;;;;;;;39.75;34.50;;;;;0.36;80.23;101391.16;5051370;28;11566;-70
2023/12/02 10:24:11;;;;;;;;;48.00;39.75;;;;;0.37;80.10;101384.94;5051537;28;11542;-70
2023/12/02 10:26:58;;;;;;;;;56.75;40.50;;;;;0.38;80.13;101392.75;5050912;28;11583;-70
2023/12/02 10:29:48;;;;;;;;;52.75;38.25;;;;;0.37;80.25;101388.44;5026681;28;11670;-70
2023/12/02 10:32:44;;;;;;;;;44.50;35.25;;;;;0.41;80.31;101381.94;5048017;28;11620;-71
2023/12/02 10:35:17;;;;;;;;;37.75;30.00;;;;;0.59;82.31;101386.81;5023606;28;11553;-70
2023/12/02 10:37:52;;;;;;;;;29.00;27.25;;;;;0.63;81.16;101382.97;5041883;28;11556;-68
2023/12/02 10:40:25;;;;;;;;;49.25;39.75;;;;;0.57;80.97;101376.34;5049398;28;11501;-69
2023/12/02 10:43:04;;;;;;;;;37.00;35.75;;;;;0.58;80.75;101382.47;5041102;28;11661;-70
2023/12/02 10:45:31;;;;;;;;;49.25;42.00;;;;;0.63;80.79;101383.78;5043121;28;11542;-70
2023/12/02 10:47:59;;;;;;;;;36.00;35.75;;;;;0.70;81.50;101379.72;5049561;28;11565;-70
2023/12/02 10:50:27;;;;;;;;;43.75;39.50;;;;;0.76;80.65;101382.88;5016701;28;11664;-70
2023/12/02 10:53:03;;;;;;;;;45.50;34.75;;;;;0.79;80.89;101379.97;5041004;28;11551;-70
2023/12/02 10:55:32;;;;;;;;;38.75;31.75;;;;;0.87;80.83;101378.44;5027815;28;11639;-71
2023/12/02 10:58:02;;;;;;;;;42.00;37.25;;;;;0.90;80.80;101369.41;5021698;28;11655;-70
2023/12/02 11:00:32;;;;;;;;;50.25;41.00;;;;;0.86;80.35;101363.50;5032515;28;11671;-68
2023/12/02 11:03:05;;;;;;;;;50.00;46.75;;;;;0.85;80.76;101364.47;5038771;28;11596;-70
2023/12/02 11:05:39;;;;;;;;;48.00;42.50;;;;;0.90;80.84;101364.09;5031302;28;11607;-71
2023/12/02 11:08:16;;;;;;;;;43.50;39.75;;;;;1.01;80.69;101360.59;5026182;28;12290;-70
2023/12/02 11:10:55;;;;;;;;;43.00;40.75;;;;;1.06;80.93;101364.59;5011066;28;11637;-69
2023/12/02 11:13:23;;;;;;;;;52.25;36.25;;;;;1.16;80.89;101362.06;5010790;28;11573;-71
2023/12/02 11:16:14;;;;;;;;;44.50;39.25;;;;;1.26;80.51;101365.69;5020949;28;11675;-70